Time;durP1;ratioP1;P1;durP2;ratioP2;P2;SDS_P1;SDS_P2;PMS_P1;PMS_P2;Temp;Humidity;BMP_temperature;BMP_pressure;BME280_temperature;BME280_humidity;BME280_pressure;Samples;Min_cycle;Max_cycle;Signal;HPM_P1;HPM_P2
2023/02/28 00:00:09;;;;;;;0.00;0.00;;;;;;;10.48;55.49;103111.94;7348067;19;20018;-57
2023/02/28 00:02:36;;;;;;;0.00;0.00;;;;;;;10.47;55.78;103110.19;7348986;19;20027;-58
2023/02/28 00:05:03;;;;;;;0.00;0.00;;;;;;;10.43;55.46;103107.50;7347068;19;20064;-57
2023/02/28 00:07:29;;;;;;;0.00;0.00;;;;;;;10.40;55.72;103097.91;7354128;19;20018;-57
2023/02/28 00:09:55;;;;;;;0.00;0.00;;;;;;;10.44;56.12;103104.94;7354399;19;21474;-58
2023/02/28 00:12:20;;;;;;;0.00;0.00;;;;;;;10.45;55.96;103111.94;7352278;19;20011;-57
2023/02/28 00:14:46;;;;;;;0.00;0.00;;;;;;;10.45;55.30;103106.69;7348428;19;20051;-58
2023/02/28 00:17:11;;;;;;;0.00;0.00;;;;;;;10.44;55.54;103112.78;7355318;19;20014;-57
2023/02/28 00:19:37;;;;;;;0.00;0.00;;;;;;;10.41;55.48;103115.34;7354224;19;20097;-58
2023/02/28 00:22:02;;;;;;;0.00;0.00;;;;;;;10.43;55.79;103118.84;7352898;19;20007;-57
2023/02/28 00:24:28;;;;;;;0.00;0.00;;;;;;;10.42;56.06;103122.31;7348518;19;20006;-57
2023/02/28 00:26:53;;;;;;;0.10;0.10;;;;;;;10.43;56.01;103118.84;7347971;19;20014;-58
2023/02/28 00:29:18;;;;;;;0.10;0.10;;;;;;;10.42;55.89;103117.09;7353473;19;20015;-58
2023/02/28 00:31:44;;;;;;;0.00;0.00;;;;;;;10.42;56.06;103121.44;7350741;19;20731;-58
2023/02/28 00:34:09;;;;;;;0.00;0.00;;;;;;;10.43;56.01;103121.44;7345266;19;20010;-58
2023/02/28 00:36:35;;;;;;;0.08;0.08;;;;;;;10.37;55.43;103116.13;7336205;19;20010;-57
2023/02/28 00:39:00;;;;;;;0.00;0.00;;;;;;;10.39;55.61;103122.25;7330275;19;20005;-58
2023/02/28 00:41:25;;;;;;;0.10;0.10;;;;;;;10.39;55.60;103122.25;7327228;19;20782;-58
2023/02/28 00:43:51;;;;;;;0.00;0.00;;;;;;;10.14;55.51;103085.25;7350787;19;20015;-58
2023/02/28 00:46:16;;;;;;;0.00;0.00;;;;;;;10.06;55.07;103065.97;7355816;19;20011;-57
2023/02/28 00:48:42;;;;;;;0.03;0.03;;;;;;;10.39;54.97;103127.47;7356256;19;20006;-57
2023/02/28 00:51:07;;;;;;;0.00;0.00;;;;;;;10.39;55.52;103127.47;7356113;19;20018;-58
2023/02/28 00:53:33;;;;;;;0.00;0.00;;;;;;;10.39;55.33;103127.47;7356370;19;20728;-57
2023/02/28 00:55:58;;;;;;;0.00;0.00;;;;;;;10.35;55.20;103125.69;7353723;19;20018;-56
2023/02/28 00:58:24;;;;;;;0.00;0.00;;;;;;;10.36;55.16;103122.22;7352374;19;20017;-57
2023/02/28 01:00:52;;;;;;;0.00;0.00;;;;;;;10.18;55.37;103094.00;7356225;19;20007;-57
2023/02/28 01:03:19;;;;;;;0.00;0.00;;;;;;;10.34;55.48;103130.03;7357340;19;20014;-57
2023/02/28 01:05:45;;;;;;;0.10;0.10;;;;;;;10.33;55.67;103129.97;7354775;19;20022;-58
2023/02/28 01:08:10;;;;;;;0.00;0.00;;;;;;;10.32;55.84;103133.44;7355336;19;20066;-56
2023/02/28 01:10:36;;;;;;;0.00;0.00;;;;;;;10.32;55.95;103125.63;7356810;19;20086;-57
2023/02/28 01:13:02;;;;;;;0.00;0.00;;;;;;;10.17;56.34;103104.44;7354978;19;20018;-58
2023/02/28 01:15:28;;;;;;;0.00;0.00;;;;;;;10.15;56.24;103104.41;7351661;19;20006;-57
2023/02/28 01:17:54;;;;;;;0.00;0.00;;;;;;;10.25;56.11;103123.78;7355339;19;20007;-57
2023/02/28 01:20:19;;;;;;;0.00;0.00;;;;;;;10.30;55.94;103136.06;7351608;19;20027;-57
2023/02/28 01:22:45;;;;;;;0.00;0.00;;;;;;;10.31;56.29;103123.88;7351781;19;20062;-57
2023/02/28 01:25:10;;;;;;;0.00;0.00;;;;;;;10.28;56.43;103124.69;7352589;19;20046;-57
2023/02/28 01:27:36;;;;;;;0.00;0.00;;;;;;;10.31;56.47;103137.81;7353994;19;20017;-58
2023/02/28 01:30:03;;;;;;;0.00;0.00;;;;;;;10.31;56.22;103129.09;7352493;19;20050;-58
2023/02/28 01:32:28;;;;;;;0.00;0.00;;;;;;;10.30;56.76;103127.34;7353252;19;20027;-58
2023/02/28 01:34:54;;;;;;;0.00;0.00;;;;;;;10.17;56.32;103099.22;7355010;19;21059;-57
2023/02/28 01:37:19;;;;;;;0.00;0.00;;;;;;;10.25;56.65;103119.41;7354402;19;20031;-57
2023/02/28 01:39:45;;;;;;;0.00;0.00;;;;;;;10.29;56.61;103129.06;7350701;19;21760;-58
2023/02/28 01:42:10;;;;;;;0.00;0.00;;;;;;;10.28;56.81;103134.25;7354290;19;20028;-57
2023/02/28 01:45:08;;;;;;;0.00;0.00;;;;;;;10.24;56.00;103111.53;7350741;19;20032;-58
2023/02/28 01:47:40;;;;;;;0.10;0.10;;;;;;;10.30;56.56;103125.59;7251605;19;2004356;-58
2023/02/28 01:50:16;;;;;;;0.00;0.00;;;;;;;10.31;56.51;103123.88;7353810;19;20109;-57
2023/02/28 01:52:43;;;;;;;0.00;0.00;;;;;;;10.28;56.65;103129.03;7348656;19;20018;-58
2023/02/28 01:55:10;;;;;;;0.00;0.00;;;;;;;10.17;56.78;103115.75;7351357;19;20030;-58
2023/02/28 01:57:46;;;;;;;0.00;0.00;;;;;;;10.25;56.77;103123.78;7354427;19;20030;-57
2023/02/28 02:00:16;;;;;;;0.00;0.00;;;;;;;10.29;57.07;103130.78;7354646;19;20014;-58
2023/02/28 02:02:44;;;;;;;0.00;0.00;;;;;;;10.23;57.32;103125.41;7351228;19;20007;-58
2023/02/28 02:05:15;;;;;;;0.00;0.00;;;;;;;10.28;56.87;103134.25;7351107;19;20054;-58
2023/02/28 02:07:43;;;;;;;0.00;0.00;;;;;;;10.19;57.40;103107.94;7348046;19;20030;-58
2023/02/28 02:10:17;;;;;;;0.10;0.10;;;;;;;10.29;56.58;103122.94;7353798;19;20013;-58
2023/02/28 02:13:08;;;;;;;0.00;0.00;;;;;;;10.28;56.27;103129.03;7358383;19;20436;-57
2023/02/28 02:15:41;;;;;;;0.05;0.05;;;;;;;10.30;56.98;103132.56;7254023;19;2004516;-57
2023/02/28 02:18:17;;;;;;;0.00;0.00;;;;;;;10.29;57.06;103136.00;7357992;19;20593;-57
2023/02/28 02:20:59;;;;;;;0.00;0.00;;;;;;;9.88;57.46;103068.22;7355824;19;20010;-57
2023/02/28 02:23:40;;;;;;;0.00;0.00;;;;;;;10.29;57.46;103128.16;7355087;19;20463;-58
2023/02/28 02:26:11;;;;;;;0.10;0.10;;;;;;;10.25;58.15;103124.66;7355419;19;20006;-57
2023/02/28 02:29:16;;;;;;;0.00;0.00;;;;;;;10.29;57.10;103131.69;7355907;19;20031;-58
2023/02/28 02:32:09;;;;;;;0.08;0.08;;;;;;;10.30;57.38;103127.34;7251346;19;2004375;-58
2023/02/28 02:35:15;;;;;;;0.00;0.00;;;;;;;10.16;57.01;103102.69;7253569;19;2004362;-57
2023/02/28 02:38:08;;;;;;;0.00;0.00;;;;;;;10.31;56.84;103126.47;7252980;19;2004024;-57
2023/02/28 02:41:03;;;;;;;0.00;0.00;;;;;;;10.31;56.84;103129.09;7254286;19;2004535;-58
2023/02/28 02:43:56;;;;;;;0.10;0.10;;;;;;;10.28;57.42;103129.91;7255286;19;2004479;-57
2023/02/28 02:46:43;;;;;;;0.00;0.00;;;;;;;10.31;57.50;103126.47;7254522;19;2004169;-57
2023/02/28 02:49:14;;;;;;;0.00;0.00;;;;;;;10.27;58.06;103128.16;7354762;19;20082;-58
2023/02/28 02:51:41;;;;;;;0.00;0.00;;;;;;;10.23;58.38;103126.28;7354045;19;20450;-58
2023/02/28 02:54:15;;;;;;;0.00;0.00;;;;;;;10.27;58.20;103132.50;7355847;19;20039;-57
2023/02/28 02:56:45;;;;;;;0.00;0.00;;;;;;;10.24;58.27;103122.88;7354038;19;20006;-57
2023/02/28 02:59:13;;;;;;;0.10;0.10;;;;;;;10.24;57.91;103121.97;7344150;19;20017;-57
2023/02/28 03:01:40;;;;;;;0.00;0.00;;;;;;;10.25;57.87;103123.78;7352678;19;20076;-58
2023/02/28 03:04:16;;;;;;;0.00;0.00;;;;;;;10.26;58.16;103128.13;7353737;19;20126;-57
2023/02/28 03:06:41;;;;;;;0.00;0.00;;;;;;;10.22;58.38;103123.66;7354891;19;20983;-57
2023/02/28 03:09:07;;;;;;;0.00;0.00;;;;;;;10.13;58.67;103109.59;7356028;19;20017;-57
2023/02/28 03:11:34;;;;;;;0.00;0.00;;;;;;;10.08;58.49;103105.13;7348570;19;20006;-57
2023/02/28 03:14:33;;;;;;;0.00;0.00;;;;;;;10.26;57.79;103125.53;7354633;19;20608;-58
2023/02/28 03:17:23;;;;;;;0.00;0.00;;;;;;;10.27;57.18;103119.44;7247785;19;2004620;-57
2023/02/28 03:20:06;;;;;;;0.00;0.00;;;;;;;10.25;57.84;103124.66;7253646;19;2004503;-57
2023/02/28 03:22:34;;;;;;;0.08;0.08;;;;;;;10.22;58.59;103121.94;7348548;19;20014;-58
2023/02/28 03:25:17;;;;;;;0.00;0.00;;;;;;;10.25;57.25;103127.25;7351445;19;20031;-56
2023/02/28 03:28:08;;;;;;;0.00;0.00;;;;;;;10.25;58.00;103126.38;7352711;19;20015;-57
2023/02/28 03:30:53;;;;;;;0.00;0.00;;;;;;;10.23;58.17;103130.66;7252165;19;2004410;-58
2023/02/28 03:33:33;;;;;;;0.00;0.00;;;;;;;10.25;57.71;103134.22;7353782;19;20090;-57
2023/02/28 03:36:05;;;;;;;0.00;0.00;;;;;;;10.23;58.25;103122.81;7351274;19;20014;-58
2023/02/28 03:38:33;;;;;;;0.00;0.00;;;;;;;10.23;58.66;103128.03;7352830;19;20018;-57
2023/02/28 03:41:06;;;;;;;0.00;0.00;;;;;;;10.20;58.39;103123.66;7356735;19;20273;-57
2023/02/28 03:43:36;;;;;;;0.00;0.00;;;;;;;10.25;58.43;103139.44;7361239;19;20747;-57
2023/02/28 03:46:06;;;;;;;0.00;0.00;;;;;;;10.24;59.00;103137.66;7357736;19;20018;-58
2023/02/28 03:48:43;;;;;;;0.00;0.00;;;;;;;10.23;58.77;103136.75;7357877;19;20031;-58
2023/02/28 03:51:14;;;;;;;0.00;0.00;;;;;;;10.25;59.00;103140.31;7351048;19;20625;-57
2023/02/28 03:53:45;;;;;;;0.00;0.00;;;;;;;10.25;59.09;103139.44;7354982;19;20022;-57
2023/02/28 03:56:19;;;;;;;0.00;0.00;;;;;;;10.27;59.03;103143.81;7353337;19;20798;-57
2023/02/28 03:59:00;;;;;;;0.00;0.00;;;;;;;10.24;58.66;103135.03;7357918;19;20445;-57
2023/02/28 04:01:41;;;;;;;0.00;0.00;;;;;;;10.29;59.09;103130.78;7355400;19;20007;-57
2023/02/28 04:04:07;;;;;;;0.10;0.10;;;;;;;10.17;58.78;103120.97;7342191;19;20764;-57
2023/02/28 04:06:34;;;;;;;0.03;0.03;;;;;;;10.28;58.62;103135.13;7354502;19;20023;-58
2023/02/28 04:09:00;;;;;;;0.00;0.00;;;;;;;10.29;58.26;103146.44;7354357;19;20041;-57
2023/02/28 04:11:40;;;;;;;0.00;0.00;;;;;;;10.31;57.53;103140.41;7356901;19;20002;-57
2023/02/28 04:14:08;;;;;;;0.00;0.00;;;;;;;10.18;57.82;103122.72;7360250;19;20027;-58
2023/02/28 04:16:35;;;;;;;0.00;0.00;;;;;;;10.29;58.07;103146.44;7355887;19;20039;-57
2023/02/28 04:19:04;;;;;;;0.00;0.00;;;;;;;10.29;58.18;103149.06;7355427;19;20014;-58
2023/02/28 04:21:32;;;;;;;0.10;0.10;;;;;;;10.28;58.61;103147.31;7344206;19;20093;-58
2023/02/28 04:24:00;;;;;;;0.10;0.10;;;;;;;10.28;58.82;103160.38;7357077;19;20007;-57
2023/02/28 04:26:29;;;;;;;0.00;0.00;;;;;;;10.28;58.62;103149.91;7355859;19;20024;-57
2023/02/28 04:28:55;;;;;;;0.00;0.00;;;;;;;10.26;58.43;103156.84;7358842;19;20011;-58
2023/02/28 04:31:20;;;;;;;0.00;0.00;;;;;;;10.26;58.83;103159.47;7359738;19;20010;-58
2023/02/28 04:33:46;;;;;;;0.10;0.10;;;;;;;10.26;59.13;103162.09;7357905;19;20022;-57
2023/02/28 04:36:13;;;;;;;0.00;0.00;;;;;;;10.09;58.84;103130.41;7359238;19;20035;-57
2023/02/28 04:38:39;;;;;;;0.00;0.00;;;;;;;10.25;59.28;103160.31;7358104;19;20021;-57
2023/02/28 04:41:05;;;;;;;0.00;0.00;;;;;;;10.19;59.28;103154.94;7361314;19;21240;-57
2023/02/28 04:43:31;;;;;;;0.00;0.00;;;;;;;10.21;59.46;103158.47;7360021;19;20015;-57
2023/02/28 04:46:00;;;;;;;0.00;0.00;;;;;;;10.24;59.54;103167.28;7359092;19;20063;-57
2023/02/28 04:48:28;;;;;;;0.00;0.00;;;;;;;10.24;59.51;103167.28;7357859;19;21689;-58
2023/02/28 04:50:53;;;;;;;0.00;0.00;;;;;;;10.23;59.18;103167.19;7357404;19;20865;-58
2023/02/28 04:53:19;;;;;;;0.00;0.00;;;;;;;10.24;59.57;103174.22;7358741;19;20010;-57
2023/02/28 04:55:45;;;;;;;0.10;0.10;;;;;;;10.24;59.65;103174.22;7354896;19;20012;-57
2023/02/28 04:58:12;;;;;;;0.00;0.00;;;;;;;10.23;59.68;103175.91;7352122;19;20010;-57
2023/02/28 05:00:37;;;;;;;0.00;0.00;;;;;;;10.25;59.77;103170.78;7361249;19;20041;-57
2023/02/28 05:03:03;;;;;;;0.10;0.10;;;;;;;10.23;59.17;103173.31;7354329;19;20074;-58
2023/02/28 05:05:28;;;;;;;0.00;0.00;;;;;;;10.22;59.74;103176.75;7359845;19;20007;-58
2023/02/28 05:07:55;;;;;;;0.00;0.00;;;;;;;10.16;59.65;103157.50;7352515;19;20039;-58
2023/02/28 05:10:21;;;;;;;0.00;0.00;;;;;;;10.16;59.29;103165.34;7359390;19;20380;-57
2023/02/28 05:12:47;;;;;;;0.00;0.00;;;;;;;10.19;59.77;103168.00;7355216;19;20006;-57
2023/02/28 05:15:14;;;;;;;0.00;0.00;;;;;;;10.19;59.44;103176.72;7355608;19;20074;-58
2023/02/28 05:17:40;;;;;;;0.00;0.00;;;;;;;10.12;59.42;103165.28;7358017;19;20482;-58
2023/02/28 05:20:07;;;;;;;0.00;0.00;;;;;;;10.14;59.82;103163.59;7360323;19;20011;-57
2023/02/28 05:22:32;;;;;;;0.00;0.00;;;;;;;10.00;59.15;103144.16;7351193;19;20106;-57
2023/02/28 05:24:58;;;;;;;0.00;0.00;;;;;;;10.08;59.74;103163.44;7360334;19;20081;-58
2023/02/28 05:27:23;;;;;;;0.00;0.00;;;;;;;10.05;59.31;103168.63;7355902;19;20010;-57
2023/02/28 05:29:48;;;;;;;0.10;0.10;;;;;;;10.01;59.50;103172.03;7354369;19;20013;-58
2023/02/28 05:32:14;;;;;;;0.10;0.10;;;;;;;9.97;59.58;103172.81;7359814;19;20014;-58
2023/02/28 05:34:41;;;;;;;0.00;0.00;;;;;;;9.92;59.73;103177.06;7355783;19;20014;-57
2023/02/28 05:37:11;;;;;;;0.00;0.00;;;;;;;9.91;59.82;103185.75;7359980;19;20027;-57
2023/02/28 05:39:37;;;;;;;0.10;0.10;;;;;;;9.84;59.71;103183.88;7359268;19;20007;-58
2023/02/28 05:42:03;;;;;;;0.00;0.00;;;;;;;9.79;59.70;103182.91;7358016;19;20014;-57
2023/02/28 05:44:28;;;;;;;0.00;0.00;;;;;;;9.46;59.54;103134.38;7359631;19;20018;-57
2023/02/28 05:46:54;;;;;;;0.00;0.00;;;;;;;9.71;59.73;103184.47;7355137;19;20898;-58
2023/02/28 05:49:19;;;;;;;0.08;0.08;;;;;;;9.65;59.95;103185.22;7358291;19;20011;-58
2023/02/28 05:51:45;;;;;;;0.00;0.00;;;;;;;9.64;59.62;103193.03;7359424;19;20010;-57
2023/02/28 05:54:10;;;;;;;0.00;0.00;;;;;;;9.58;59.55;103186.84;7355252;19;20014;-57
2023/02/28 05:56:37;;;;;;;0.00;0.00;;;;;;;9.57;59.67;103187.66;7355465;19;20094;-57
2023/02/28 05:59:03;;;;;;;0.00;0.00;;;;;;;9.53;59.99;103193.69;7358367;19;20055;-57
2023/02/28 06:01:36;;;;;;;0.10;0.10;;;;;;;9.51;59.43;103205.78;7360163;19;20074;-57
2023/02/28 06:04:04;;;;;;;0.00;0.00;;;;;;;9.45;59.86;103210.88;7355788;19;20010;-57
2023/02/28 06:06:29;;;;;;;0.00;0.00;;;;;;;9.18;60.08;103168.56;7355407;19;20019;-57
2023/02/28 06:08:55;;;;;;;0.10;0.10;;;;;;;9.37;60.18;103207.19;7356347;19;20545;-57
2023/02/28 06:11:21;;;;;;;0.08;0.08;;;;;;;9.33;60.17;103200.19;7358734;19;20371;-58
2023/02/28 06:13:47;;;;;;;0.10;0.10;;;;;;;9.35;60.37;103208.91;7359801;19;20011;-57
2023/02/28 06:16:12;;;;;;;0.00;0.00;;;;;;;9.34;60.24;103209.75;7352082;19;20512;-58
2023/02/28 06:18:38;;;;;;;0.00;0.00;;;;;;;9.33;60.23;103210.63;7360499;19;20014;-58
2023/02/28 06:21:04;;;;;;;0.00;0.00;;;;;;;9.26;60.07;103200.88;7356099;19;20598;-57
2023/02/28 06:23:30;;;;;;;0.00;0.00;;;;;;;9.32;60.32;103214.03;7360687;19;20010;-58
2023/02/28 06:25:58;;;;;;;0.00;0.00;;;;;;;9.31;59.90;103212.28;7353389;19;20002;-57
2023/02/28 06:28:24;;;;;;;0.00;0.00;;;;;;;9.17;60.04;103190.22;7360577;19;20010;-58
2023/02/28 06:30:51;;;;;;;0.00;0.00;;;;;;;9.25;59.72;103206.94;7355974;19;20025;-58
2023/02/28 06:33:16;;;;;;;0.00;0.00;;;;;;;9.29;59.78;103219.22;7358279;19;20022;-59
2023/02/28 06:35:47;;;;;;;0.05;0.05;;;;;;;9.22;59.98;103197.31;7352500;19;20455;-58
2023/02/28 06:38:12;;;;;;;0.00;0.00;;;;;;;9.13;60.15;103191.03;7359030;19;20021;-57
2023/02/28 06:40:37;;;;;;;0.08;0.08;;;;;;;9.21;60.00;103205.09;7358515;19;22259;-58
2023/02/28 06:43:03;;;;;;;0.00;0.00;;;;;;;9.20;59.88;103208.56;7358309;19;20006;-57
2023/02/28 06:45:29;;;;;;;0.00;0.00;;;;;;;9.27;59.97;103226.09;7346880;19;20006;-57
2023/02/28 06:47:55;;;;;;;0.00;0.00;;;;;;;9.29;60.17;103237.47;7356938;19;20014;-57
2023/02/28 06:50:20;;;;;;;0.10;0.10;;;;;;;9.12;60.21;103202.28;7353024;19;20053;-58
2023/02/28 06:52:46;;;;;;;0.03;0.03;;;;;;;9.24;60.33;103231.25;7356742;19;20011;-58
2023/02/28 06:55:11;;;;;;;0.00;0.00;;;;;;;9.26;60.61;103234.75;7355335;19;20023;-57
2023/02/28 06:57:37;;;;;;;0.00;0.00;;;;;;;9.25;61.04;103248.66;7349350;19;20010;-58
2023/02/28 07:00:09;;;;;;;0.00;0.00;;;;;;;9.14;60.49;103226.66;7352572;19;20007;-57
2023/02/28 07:02:35;;;;;;;0.00;0.00;;;;;;;8.80;61.07;103186.75;7353430;19;20090;-57
2023/02/28 07:05:01;;;;;;;0.00;0.00;;;;;;;9.17;60.89;103247.56;7353514;19;20637;-57
2023/02/28 07:07:26;;;;;;;0.00;0.00;;;;;;;9.19;61.21;103258.94;7350364;19;20109;-58
2023/02/28 07:09:52;;;;;;;0.00;0.00;;;;;;;9.14;61.34;103247.53;7356277;19;20010;-58
2023/02/28 07:12:17;;;;;;;0.00;0.00;;;;;;;9.15;61.19;103257.09;7352339;19;20114;-58
2023/02/28 07:14:43;;;;;;;0.10;0.10;;;;;;;9.18;61.16;103267.63;7351509;19;20010;-57
2023/02/28 07:17:11;;;;;;;0.00;0.00;;;;;;;9.18;61.33;103275.44;7354019;19;20019;-58
2023/02/28 07:19:40;;;;;;;0.00;0.00;;;;;;;9.17;61.19;103277.13;7354294;19;20018;-57
2023/02/28 07:22:07;;;;;;;0.10;0.10;;;;;;;9.21;60.85;103288.53;7345898;19;20049;-57
2023/02/28 07:24:32;;;;;;;0.00;0.00;;;;;;;9.03;60.96;103245.53;7354570;19;20040;-57
2023/02/28 07:26:59;;;;;;;0.00;0.00;;;;;;;9.18;60.99;103273.72;7354814;19;20467;-58
2023/02/28 07:29:24;;;;;;;0.00;0.00;;;;;;;9.20;61.21;103276.34;7353362;19;20020;-58
2023/02/28 07:31:52;;;;;;;0.00;0.00;;;;;;;9.21;61.44;103272.88;7351696;19;20010;-58
2023/02/28 07:34:18;;;;;;;0.00;0.00;;;;;;;9.20;61.14;103278.94;7353840;19;20587;-57
2023/02/28 07:36:44;;;;;;;0.00;0.00;;;;;;;9.18;61.31;103272.84;7350474;19;20018;-57
2023/02/28 07:39:10;;;;;;;0.00;0.00;;;;;;;9.10;61.02;103260.47;7354571;19;20438;-58
2023/02/28 07:41:39;;;;;;;0.00;0.00;;;;;;;9.17;60.96;103266.72;7351835;19;20022;-58
2023/02/28 07:44:05;;;;;;;0.00;0.00;;;;;;;9.16;61.16;103266.69;7353813;19;20467;-57
2023/02/28 07:46:34;;;;;;;0.00;0.00;;;;;;;9.24;61.37;103283.41;7349985;19;20018;-57
2023/02/28 07:49:02;;;;;;;0.10;0.10;;;;;;;9.08;60.71;103261.28;7336446;19;20002;-57
2023/02/28 07:51:28;;;;;;;;;;;;;;;9.28;59.60;103286.13;7348634;19;20479;-58
2023/02/28 07:53:53;;;;;;;0.00;0.00;;;;;;;9.26;60.66;103286.91;7352323;19;19914;-58
2023/02/28 07:56:18;;;;;;;0.00;0.00;;;;;;;9.24;60.55;103283.41;7353966;19;20011;-57
2023/02/28 07:58:44;;;;;;;0.00;0.00;;;;;;;8.94;60.70;103241.81;7351415;19;20014;-57
2023/02/28 08:01:10;;;;;;;0.10;0.10;;;;;;;9.24;60.81;103291.22;7351952;19;20015;-57
2023/02/28 08:03:37;;;;;;;0.00;0.00;;;;;;;9.17;60.72;103284.06;7355631;19;20339;-57
2023/02/28 08:06:04;;;;;;;0.00;0.00;;;;;;;9.23;60.64;103298.16;7352450;19;20006;-58
2023/02/28 08:08:31;;;;;;;0.10;0.10;;;;;;;9.22;60.77;103291.16;7354566;19;20057;-57
2023/02/28 08:11:00;;;;;;;0.00;0.00;;;;;;;9.23;60.68;103292.06;7353234;19;20691;-57
2023/02/28 08:13:27;;;;;;;0.00;0.00;;;;;;;9.26;60.69;103302.56;7348518;19;20843;-58
2023/02/28 08:15:52;;;;;;;0.00;0.00;;;;;;;9.18;60.60;103284.13;7345459;19;20060;-58
2023/02/28 08:18:18;;;;;;;0.10;0.10;;;;;;;9.22;60.74;103293.78;7350529;19;20010;-58
2023/02/28 08:20:43;;;;;;;0.00;0.00;;;;;;;9.30;60.72;103315.72;7353753;19;20014;-58
2023/02/28 08:23:08;;;;;;;0.00;0.00;;;;;;;9.27;60.75;103299.09;7354804;19;20022;-57
2023/02/28 08:25:34;;;;;;;0.00;0.00;;;;;;;9.34;60.73;103311.47;7353013;19;20038;-57
2023/02/28 08:27:59;;;;;;;0.00;0.00;;;;;;;9.30;60.74;103304.41;7356935;19;20017;-57
2023/02/28 08:30:25;;;;;;;0.00;0.00;;;;;;;9.38;60.69;103308.09;7359296;19;20029;-58
2023/02/28 08:32:50;;;;;;;0.00;0.00;;;;;;;9.25;60.63;103279.94;7355285;19;20130;-58
2023/02/28 08:35:16;;;;;;;0.00;0.00;;;;;;;9.38;60.25;103302.88;7357188;19;20003;-57
2023/02/28 08:37:41;;;;;;;0.03;0.03;;;;;;;9.30;60.65;103288.75;7355652;19;20049;-58
2023/02/28 08:40:07;;;;;;;0.00;0.00;;;;;;;9.36;60.41;103291.50;7358131;19;20254;-57
2023/02/28 08:42:33;;;;;;;0.03;0.03;;;;;;;9.50;60.45;103310.97;7361524;19;20015;-57
2023/02/28 08:44:58;;;;;;;0.00;0.00;;;;;;;9.44;60.19;103297.78;7356527;19;20033;-57
2023/02/28 08:47:24;;;;;;;0.00;0.00;;;;;;;9.53;60.18;103303.25;7360131;19;20018;-57
2023/02/28 08:49:49;;;;;;;0.10;0.10;;;;;;;9.55;60.07;103301.53;7359240;19;20025;-57
2023/02/28 08:52:14;;;;;;;0.00;0.00;;;;;;;9.55;59.77;103306.75;7357970;19;20013;-57
2023/02/28 08:54:40;;;;;;;0.00;0.00;;;;;;;9.46;59.91;103280.44;7357794;19;20462;-57
2023/02/28 08:57:05;;;;;;;0.00;0.00;;;;;;;9.48;60.05;103285.69;7355496;19;20007;-58
2023/02/28 08:59:31;;;;;;;0.00;0.00;;;;;;;9.65;59.97;103317.41;7356987;19;20011;-57
2023/02/28 09:01:57;;;;;;;0.00;0.00;;;;;;;9.66;60.08;103312.22;7355133;19;20010;-57
2023/02/28 09:04:22;;;;;;;0.00;0.00;;;;;;;9.61;59.99;103304.28;7355463;19;20018;-57
2023/02/28 09:06:48;;;;;;;0.00;0.00;;;;;;;9.68;59.68;103304.41;7353821;19;20043;-57
2023/02/28 09:09:15;;;;;;;0.05;0.05;;;;;;;9.74;59.95;103312.41;7356015;19;20010;-58
2023/02/28 09:11:40;;;;;;;0.08;0.08;;;;;;;9.76;59.83;103310.69;7356721;19;20007;-57
2023/02/28 09:14:05;;;;;;;0.00;0.00;;;;;;;9.79;59.65;103316.00;7355033;19;21748;-58
2023/02/28 09:16:32;;;;;;;0.00;0.00;;;;;;;9.84;59.37;103324.81;7354852;19;20778;-58
2023/02/28 09:18:58;;;;;;;0.00;0.00;;;;;;;9.86;58.98;103325.72;7355648;19;20092;-58
2023/02/28 09:21:23;;;;;;;0.00;0.00;;;;;;;9.73;58.80;103300.16;7348606;19;20078;-57
2023/02/28 09:23:50;;;;;;;0.00;0.00;;;;;;;9.91;58.74;103329.31;7354988;19;20021;-58
2023/02/28 09:26:15;;;;;;;0.00;0.00;;;;;;;9.92;58.63;103328.44;7349479;19;20007;-57
2023/02/28 09:28:41;;;;;;;0.00;0.00;;;;;;;9.93;58.36;103327.59;7352872;19;20473;-58
2023/02/28 09:31:06;;;;;;;0.00;0.00;;;;;;;9.95;58.46;103333.75;7352481;19;20013;-57
2023/02/28 09:33:32;;;;;;;0.00;0.00;;;;;;;9.95;58.14;103332.88;7356586;19;20035;-57
2023/02/28 09:36:00;;;;;;;0.00;0.00;;;;;;;10.00;58.38;103337.34;7354249;19;20011;-57
2023/02/28 09:38:25;;;;;;;0.00;0.00;;;;;;;10.02;58.21;103347.81;7345899;19;20847;-58
2023/02/28 09:41:17;;;;;;;0.00;0.00;;;;;;;10.08;57.95;103340.09;7355015;19;20017;-57
2023/02/28 09:43:49;;;;;;;0.00;0.00;;;;;;;10.09;58.12;103334.94;7243248;19;2004314;-57
2023/02/28 09:46:21;;;;;;;0.00;0.00;;;;;;;10.09;58.00;103342.78;7348822;19;20011;-58
2023/02/28 09:48:49;;;;;;;0.00;0.00;;;;;;;10.01;58.40;103318.22;7352606;19;20010;-57
2023/02/28 09:51:48;;;;;;;0.03;0.03;;;;;;;10.21;58.07;103341.25;7354354;19;20347;-57
2023/02/28 09:54:20;;;;;;;0.00;0.00;;;;;;;10.24;57.86;103341.34;7253385;19;2004618;-58
2023/02/28 09:56:52;;;;;;;0.08;0.08;;;;;;;10.28;58.01;103337.94;7352631;19;20780;-57
2023/02/28 09:59:29;;;;;;;0.00;0.00;;;;;;;10.30;57.93;103336.28;7355987;19;20006;-57
2023/02/28 10:02:16;;;;;;;0.00;0.00;;;;;;;10.35;57.89;103339.84;7352216;19;20031;-58
2023/02/28 10:04:45;;;;;;;0.00;0.00;;;;;;;10.38;58.06;103332.06;7347895;19;20610;-57
2023/02/28 10:07:39;;;;;;;0.00;0.00;;;;;;;10.46;58.13;103335.72;7348943;19;20408;-57
2023/02/28 10:10:24;;;;;;;0.00;0.00;;;;;;;10.50;57.68;103334.94;7238219;19;2004229;-58
2023/02/28 10:12:53;;;;;;;0.08;0.08;;;;;;;10.54;57.72;103323.72;7346379;19;20014;-58
2023/02/28 10:15:23;;;;;;;0.08;0.08;;;;;;;10.63;57.96;103331.69;7352241;19;20014;-58
2023/02/28 10:17:54;;;;;;;0.00;0.00;;;;;;;10.72;58.00;103340.56;7352910;19;20503;-58
2023/02/28 10:20:23;;;;;;;0.00;0.00;;;;;;;10.83;58.12;103331.19;7356174;19;20006;-58
2023/02/28 10:23:16;;;;;;;0.00;0.00;;;;;;;11.01;57.59;103328.91;7354539;19;20566;-57
2023/02/28 10:25:48;;;;;;;0.00;0.00;;;;;;;11.15;57.45;103332.66;7357409;19;20041;-57
2023/02/28 10:28:17;;;;;;;0.00;0.00;;;;;;;11.28;56.85;103338.09;7356940;19;20018;-58
2023/02/28 10:30:51;;;;;;;0.00;0.00;;;;;;;11.41;57.00;103333.09;7354277;19;20014;-57
2023/02/28 10:33:29;;;;;;;0.00;0.00;;;;;;;11.55;56.37;103342.88;7357080;19;20010;-58
2023/02/28 10:35:54;;;;;;;0.00;0.00;;;;;;;11.59;56.51;103337.72;7356965;19;20014;-58
2023/02/28 10:38:27;;;;;;;0.00;0.00;;;;;;;11.70;56.35;103330.91;7355869;19;20021;-58
2023/02/28 10:41:04;;;;;;;0.00;0.00;;;;;;;11.83;56.17;103337.22;7356227;19;20665;-58
2023/02/28 10:43:29;;;;;;;0.00;0.00;;;;;;;11.90;56.00;103335.56;7355889;19;20036;-57
2023/02/28 10:46:01;;;;;;;0.00;0.00;;;;;;;12.02;56.26;103335.75;7355430;19;20014;-59
2023/02/28 10:48:58;;;;;;;0.00;0.00;;;;;;;12.18;56.30;103331.59;7354355;19;20492;-57
2023/02/28 10:51:24;;;;;;;0.00;0.00;;;;;;;12.20;55.38;103330.75;7250359;19;2005630;-58
2023/02/28 10:53:52;;;;;;;0.00;0.00;;;;;;;12.27;54.76;103336.09;7355283;19;20010;-58
2023/02/28 10:56:22;;;;;;;0.00;0.00;;;;;;;12.29;55.09;103334.34;7355039;19;20010;-58
2023/02/28 10:59:09;;;;;;;0.00;0.00;;;;;;;12.35;55.09;103331.78;7355917;19;20039;-58
2023/02/28 11:01:52;;;;;;;0.00;0.00;;;;;;;12.46;55.38;103327.56;7354902;19;20554;-57
2023/02/28 11:04:32;;;;;;;0.00;0.00;;;;;;;12.57;55.32;103336.44;7356727;19;20017;-58
2023/02/28 11:07:03;;;;;;;0.00;0.00;;;;;;;12.68;54.36;103326.94;7356952;19;20746;-57
2023/02/28 11:09:39;;;;;;;0.00;0.00;;;;;;;12.81;54.17;103329.69;7356231;19;20014;-58
2023/02/28 11:12:19;;;;;;;0.10;0.10;;;;;;;12.87;53.30;103335.84;7353146;19;20018;-59
2023/02/28 11:14:50;;;;;;;0.00;0.00;;;;;;;12.93;52.83;103329.81;7354990;19;20011;-58
2023/02/28 11:17:28;;;;;;;0.10;0.10;;;;;;;13.01;53.33;103322.88;7354830;19;20026;-57
2023/02/28 11:19:57;;;;;;;0.10;0.10;;;;;;;13.01;53.10;103325.50;7355095;19;20713;-57
2023/02/28 11:22:28;;;;;;;0.00;0.00;;;;;;;13.06;52.68;103321.19;7354399;19;20069;-58
2023/02/28 11:24:57;;;;;;;0.00;0.00;;;;;;;13.06;52.09;103310.69;7354268;19;20031;-58
2023/02/28 11:27:31;;;;;;;0.00;0.00;;;;;;;13.18;52.76;103321.31;7354967;19;20014;-58
2023/02/28 11:29:58;;;;;;;0.00;0.00;;;;;;;13.15;51.90;103323.88;7354301;19;20106;-58
2023/02/28 11:32:28;;;;;;;0.00;0.00;;;;;;;13.07;51.39;103301.06;7352591;19;20022;-59
2023/02/28 11:35:16;;;;;;;0.00;0.00;;;;;;;13.23;52.60;103327.50;7353969;19;20031;-58
2023/02/28 11:37:42;;;;;;;0.00;0.00;;;;;;;13.15;51.84;103323.88;7252638;19;2004476;-58